sensor_id;sensor_type;location;lat;lon;timestamp;pressure;altitude;pressure_sealevel;temperature
19282;BMP180;9774;52.034;5.342;2022-09-09T00:02:01;100598.00;;;21.90
19282;BMP180;9774;52.034;5.342;2022-09-09T00:04:31;100593.00;;;22.00
19282;BMP180;9774;52.034;5.342;2022-09-09T00:07:04;100588.00;;;21.90
19282;BMP180;9774;52.034;5.342;2022-09-09T00:09:40;100587.00;;;21.90
19282;BMP180;9774;52.034;5.342;2022-09-09T00:12:14;100586.00;;;22.00
19282;BMP180;9774;52.034;5.342;2022-09-09T00:14:47;100579.00;;;21.90
19282;BMP180;9774;52.034;5.342;2022-09-09T00:17:30;100577.00;;;21.90
19282;BMP180;9774;52.034;5.342;2022-09-09T00:20:05;100588.00;;;21.90
19282;BMP180;9774;52.034;5.342;2022-09-09T00:22:37;100581.00;;;21.90
19282;BMP180;9774;52.034;5.342;2022-09-09T00:25:12;100588.00;;;21.80
19282;BMP180;9774;52.034;5.342;2022-09-09T00:27:46;100583.00;;;21.90
19282;BMP180;9774;52.034;5.342;2022-09-09T00:30:16;100579.00;;;21.90
19282;BMP180;9774;52.034;5.342;2022-09-09T00:32:46;100583.00;;;21.90
19282;BMP180;9774;52.034;5.342;2022-09-09T00:35:21;100580.00;;;21.80
19282;BMP180;9774;52.034;5.342;2022-09-09T00:37:51;100573.00;;;21.80
19282;BMP180;9774;52.034;5.342;2022-09-09T00:40:28;100578.00;;;21.70
19282;BMP180;9774;52.034;5.342;2022-09-09T00:43:10;100572.00;;;21.70
19282;BMP180;9774;52.034;5.342;2022-09-09T00:46:10;100566.00;;;21.70
19282;BMP180;9774;52.034;5.342;2022-09-09T00:48:50;100569.00;;;21.70
19282;BMP180;9774;52.034;5.342;2022-09-09T00:51:25;100571.00;;;21.70
19282;BMP180;9774;52.034;5.342;2022-09-09T00:54:06;100579.00;;;21.60
19282;BMP180;9774;52.034;5.342;2022-09-09T00:56:40;100573.00;;;21.70
19282;BMP180;9774;52.034;5.342;2022-09-09T00:59:21;100574.00;;;21.60
19282;BMP180;9774;52.034;5.342;2022-09-09T01:01:52;100579.00;;;21.60
19282;BMP180;9774;52.034;5.342;2022-09-09T01:04:26;100583.00;;;21.60
19282;BMP180;9774;52.034;5.342;2022-09-09T01:07:02;100588.00;;;21.50
19282;BMP180;9774;52.034;5.342;2022-09-09T01:09:42;100579.00;;;21.50
19282;BMP180;9774;52.034;5.342;2022-09-09T01:12:16;100574.00;;;21.50
19282;BMP180;9774;52.034;5.342;2022-09-09T01:14:47;100572.00;;;21.50
19282;BMP180;9774;52.034;5.342;2022-09-09T01:17:19;100568.00;;;21.50
19282;BMP180;9774;52.034;5.342;2022-09-09T01:19:55;100576.00;;;21.40
19282;BMP180;9774;52.034;5.342;2022-09-09T01:22:32;100565.00;;;21.40
19282;BMP180;9774;52.034;5.342;2022-09-09T01:25:22;100565.00;;;21.40
19282;BMP180;9774;52.034;5.342;2022-09-09T01:27:57;100565.00;;;21.40
19282;BMP180;9774;52.034;5.342;2022-09-09T01:30:26;100555.00;;;21.40
19282;BMP180;9774;52.034;5.342;2022-09-09T01:32:56;100550.00;;;21.40
19282;BMP180;9774;52.034;5.342;2022-09-09T01:35:37;100552.00;;;21.40
19282;BMP180;9774;52.034;5.342;2022-09-09T01:38:05;100554.00;;;21.40
19282;BMP180;9774;52.034;5.342;2022-09-09T01:40:33;100561.00;;;21.40
19282;BMP180;9774;52.034;5.342;2022-09-09T01:43:02;100554.00;;;21.40
19282;BMP180;9774;52.034;5.342;2022-09-09T01:45:30;100553.00;;;21.40
19282;BMP180;9774;52.034;5.342;2022-09-09T01:47:58;100557.00;;;21.40
19282;BMP180;9774;52.034;5.342;2022-09-09T01:50:26;100554.00;;;21.30
19282;BMP180;9774;52.034;5.342;2022-09-09T01:52:56;100559.00;;;21.30
19282;BMP180;9774;52.034;5.342;2022-09-09T01:55:29;100559.00;;;21.20
19282;BMP180;9774;52.034;5.342;2022-09-09T01:58:08;100561.00;;;21.20
19282;BMP180;9774;52.034;5.342;2022-09-09T02:00:43;100553.00;;;21.20
19282;BMP180;9774;52.034;5.342;2022-09-09T02:03:21;100544.00;;;21.20
19282;BMP180;9774;52.034;5.342;2022-09-09T02:05:56;100541.00;;;21.20
19282;BMP180;9774;52.034;5.342;2022-09-09T02:08:32;100538.00;;;21.20
19282;BMP180;9774;52.034;5.342;2022-09-09T02:11:05;100528.00;;;21.20
19282;BMP180;9774;52.034;5.342;2022-09-09T02:13:36;100526.00;;;21.20
19282;BMP180;9774;52.034;5.342;2022-09-09T02:16:08;100525.00;;;21.10
19282;BMP180;9774;52.034;5.342;2022-09-09T02:18:40;100526.00;;;21.10
19282;BMP180;9774;52.034;5.342;2022-09-09T02:21:08;100529.00;;;21.10
19282;BMP180;9774;52.034;5.342;2022-09-09T02:23:38;100539.00;;;21.10
19282;BMP180;9774;52.034;5.342;2022-09-09T02:26:07;100535.00;;;21.10
19282;BMP180;9774;52.034;5.342;2022-09-09T02:28:38;100534.00;;;21.10
19282;BMP180;9774;52.034;5.342;2022-09-09T02:31:06;100532.00;;;21.10
19282;BMP180;9774;52.034;5.342;2022-09-09T02:33:40;100539.00;;;21.10
19282;BMP180;9774;52.034;5.342;2022-09-09T02:36:09;100525.00;;;21.10
19282;BMP180;9774;52.034;5.342;2022-09-09T02:38:40;100521.00;;;21.00
19282;BMP180;9774;52.034;5.342;2022-09-09T02:41:09;100523.00;;;21.00
19282;BMP180;9774;52.034;5.342;2022-09-09T02:43:37;100530.00;;;21.00
19282;BMP180;9774;52.034;5.342;2022-09-09T02:46:12;100527.00;;;21.00
19282;BMP180;9774;52.034;5.342;2022-09-09T02:48:51;100523.00;;;21.00
19282;BMP180;9774;52.034;5.342;2022-09-09T02:51:27;100522.00;;;20.90
19282;BMP180;9774;52.034;5.342;2022-09-09T02:54:04;100525.00;;;20.90
19282;BMP180;9774;52.034;5.342;2022-09-09T02:56:40;100529.00;;;20.90
19282;BMP180;9774;52.034;5.342;2022-09-09T02:59:10;100524.00;;;20.90
19282;BMP180;9774;52.034;5.342;2022-09-09T03:01:37;100520.00;;;20.90
19282;BMP180;9774;52.034;5.342;2022-09-09T03:04:06;100526.00;;;20.90
19282;BMP180;9774;52.034;5.342;2022-09-09T03:06:33;100528.00;;;20.90
19282;BMP180;9774;52.034;5.342;2022-09-09T03:09:01;100525.00;;;20.90
19282;BMP180;9774;52.034;5.342;2022-09-09T03:11:29;100529.00;;;20.90
19282;BMP180;9774;52.034;5.342;2022-09-09T03:13:56;100525.00;;;20.90
19282;BMP180;9774;52.034;5.342;2022-09-09T03:16:25;100525.00;;;20.90
19282;BMP180;9774;52.034;5.342;2022-09-09T03:18:52;100522.00;;;20.90
19282;BMP180;9774;52.034;5.342;2022-09-09T03:21:19;100521.00;;;20.90
19282;BMP180;9774;52.034;5.342;2022-09-09T03:23:47;100518.00;;;20.90
19282;BMP180;9774;52.034;5.342;2022-09-09T03:26:14;100517.00;;;20.90
19282;BMP180;9774;52.034;5.342;2022-09-09T03:28:42;100517.00;;;20.80
19282;BMP180;9774;52.034;5.342;2022-09-09T03:31:10;100526.00;;;20.80
19282;BMP180;9774;52.034;5.342;2022-09-09T03:33:39;100519.00;;;20.80
19282;BMP180;9774;52.034;5.342;2022-09-09T03:36:07;100517.00;;;20.80
19282;BMP180;9774;52.034;5.342;2022-09-09T03:38:35;100522.00;;;20.80
19282;BMP180;9774;52.034;5.342;2022-09-09T03:41:02;100524.00;;;20.80
19282;BMP180;9774;52.034;5.342;2022-09-09T03:43:32;100530.00;;;20.80
19282;BMP180;9774;52.034;5.342;2022-09-09T03:45:59;100520.00;;;20.80
19282;BMP180;9774;52.034;5.342;2022-09-09T03:48:27;100513.00;;;20.80
19282;BMP180;9774;52.034;5.342;2022-09-09T03:50:56;100516.00;;;20.70
19282;BMP180;9774;52.034;5.342;2022-09-09T03:53:26;100513.00;;;20.70
19282;BMP180;9774;52.034;5.342;2022-09-09T03:55:56;100510.00;;;20.70
19282;BMP180;9774;52.034;5.342;2022-09-09T03:58:26;100517.00;;;20.70
19282;BMP180;9774;52.034;5.342;2022-09-09T04:00:55;100513.00;;;20.70
19282;BMP180;9774;52.034;5.342;2022-09-09T04:03:23;100516.00;;;20.70
19282;BMP180;9774;52.034;5.342;2022-09-09T04:05:52;100510.00;;;20.70
19282;BMP180;9774;52.034;5.342;2022-09-09T04:08:21;100508.00;;;20.70
19282;BMP180;9774;52.034;5.342;2022-09-09T04:10:51;100502.00;;;20.70
19282;BMP180;9774;52.034;5.342;2022-09-09T04:13:19;100505.00;;;20.60
19282;BMP180;9774;52.034;5.342;2022-09-09T04:15:51;100509.00;;;20.60
19282;BMP180;9774;52.034;5.342;2022-09-09T04:18:19;100503.00;;;20.70
19282;BMP180;9774;52.034;5.342;2022-09-09T04:20:47;100500.00;;;20.70
19282;BMP180;9774;52.034;5.342;2022-09-09T04:23:15;100503.00;;;20.70
19282;BMP180;9774;52.034;5.342;2022-09-09T04:25:48;100501.00;;;20.60
19282;BMP180;9774;52.034;5.342;2022-09-09T04:28:16;100498.00;;;20.70
19282;BMP180;9774;52.034;5.342;2022-09-09T04:30:44;100498.00;;;20.70
19282;BMP180;9774;52.034;5.342;2022-09-09T04:33:13;100503.00;;;20.70
19282;BMP180;9774;52.034;5.342;2022-09-09T04:35:44;100491.00;;;20.60
19282;BMP180;9774;52.034;5.342;2022-09-09T04:38:12;100489.00;;;20.70
19282;BMP180;9774;52.034;5.342;2022-09-09T04:40:41;100489.00;;;20.70
19282;BMP180;9774;52.034;5.342;2022-09-09T04:43:10;100487.00;;;20.70
19282;BMP180;9774;52.034;5.342;2022-09-09T04:45:37;100478.00;;;20.70
19282;BMP180;9774;52.034;5.342;2022-09-09T04:48:06;100481.00;;;20.70
19282;BMP180;9774;52.034;5.342;2022-09-09T04:50:33;100476.00;;;20.70
19282;BMP180;9774;52.034;5.342;2022-09-09T04:53:02;100476.00;;;20.70
19282;BMP180;9774;52.034;5.342;2022-09-09T04:55:30;100482.00;;;20.70
19282;BMP180;9774;52.034;5.342;2022-09-09T04:58:02;100476.00;;;20.70
19282;BMP180;9774;52.034;5.342;2022-09-09T05:00:31;100484.00;;;20.70
19282;BMP180;9774;52.034;5.342;2022-09-09T05:03:01;100478.00;;;20.70
19282;BMP180;9774;52.034;5.342;2022-09-09T05:05:29;100482.00;;;20.70
19282;BMP180;9774;52.034;5.342;2022-09-09T05:08:01;100486.00;;;20.60
19282;BMP180;9774;52.034;5.342;2022-09-09T05:10:29;100486.00;;;20.70
19282;BMP180;9774;52.034;5.342;2022-09-09T05:12:56;100485.00;;;20.70
19282;BMP180;9774;52.034;5.342;2022-09-09T05:15:24;100483.00;;;20.70
19282;BMP180;9774;52.034;5.342;2022-09-09T05:17:56;100481.00;;;20.70
19282;BMP180;9774;52.034;5.342;2022-09-09T05:20:23;100477.00;;;20.70
19282;BMP180;9774;52.034;5.342;2022-09-09T05:22:53;100478.00;;;20.60
19282;BMP180;9774;52.034;5.342;2022-09-09T05:25:20;100474.00;;;20.70
19282;BMP180;9774;52.034;5.342;2022-09-09T05:27:48;100476.00;;;20.70
19282;BMP180;9774;52.034;5.342;2022-09-09T05:30:16;100483.00;;;20.70
19282;BMP180;9774;52.034;5.342;2022-09-09T05:32:45;100470.00;;;20.70
19282;BMP180;9774;52.034;5.342;2022-09-09T05:35:16;100476.00;;;20.70
19282;BMP180;9774;52.034;5.342;2022-09-09T05:37:47;100471.00;;;20.70
19282;BMP180;9774;52.034;5.342;2022-09-09T05:40:14;100475.00;;;20.70
19282;BMP180;9774;52.034;5.342;2022-09-09T05:42:42;100463.00;;;20.70
19282;BMP180;9774;52.034;5.342;2022-09-09T05:45:09;100465.00;;;20.70
19282;BMP180;9774;52.034;5.342;2022-09-09T05:47:37;100459.00;;;20.70
19282;BMP180;9774;52.034;5.342;2022-09-09T05:50:05;100468.00;;;20.70
19282;BMP180;9774;52.034;5.342;2022-09-09T05:52:34;100476.00;;;20.80
19282;BMP180;9774;52.034;5.342;2022-09-09T05:55:02;100474.00;;;20.80
19282;BMP180;9774;52.034;5.342;2022-09-09T05:57:30;100481.00;;;20.80
19282;BMP180;9774;52.034;5.342;2022-09-09T05:59:57;100479.00;;;20.80
19282;BMP180;9774;52.034;5.342;2022-09-09T06:02:25;100484.00;;;20.90
19282;BMP180;9774;52.034;5.342;2022-09-09T06:04:52;100477.00;;;20.90
19282;BMP180;9774;52.034;5.342;2022-09-09T06:07:21;100482.00;;;21.00
19282;BMP180;9774;52.034;5.342;2022-09-09T06:09:50;100482.00;;;21.00
19282;BMP180;9774;52.034;5.342;2022-09-09T06:12:17;100486.00;;;21.10
19282;BMP180;9774;52.034;5.342;2022-09-09T06:14:45;100484.00;;;21.10
19282;BMP180;9774;52.034;5.342;2022-09-09T06:17:12;100491.00;;;21.10
19282;BMP180;9774;52.034;5.342;2022-09-09T06:19:39;100484.00;;;21.20
19282;BMP180;9774;52.034;5.342;2022-09-09T06:22:06;100478.00;;;21.20
19282;BMP180;9774;52.034;5.342;2022-09-09T06:24:38;100482.00;;;21.30
19282;BMP180;9774;52.034;5.342;2022-09-09T06:27:07;100488.00;;;21.30
19282;BMP180;9774;52.034;5.342;2022-09-09T06:29:34;100482.00;;;21.40
19282;BMP180;9774;52.034;5.342;2022-09-09T06:32:05;100477.00;;;21.40
19282;BMP180;9774;52.034;5.342;2022-09-09T06:34:34;100480.00;;;21.50
19282;BMP180;9774;52.034;5.342;2022-09-09T06:37:02;100477.00;;;21.50
19282;BMP180;9774;52.034;5.342;2022-09-09T06:39:30;100480.00;;;21.60
19282;BMP180;9774;52.034;5.342;2022-09-09T06:41:58;100473.00;;;21.60
19282;BMP180;9774;52.034;5.342;2022-09-09T06:44:27;100473.00;;;21.70
19282;BMP180;9774;52.034;5.342;2022-09-09T06:46:54;100473.00;;;21.70
19282;BMP180;9774;52.034;5.342;2022-09-09T06:49:21;100472.00;;;21.70
19282;BMP180;9774;52.034;5.342;2022-09-09T06:51:49;100466.00;;;21.70
19282;BMP180;9774;52.034;5.342;2022-09-09T06:54:18;100464.00;;;21.80
19282;BMP180;9774;52.034;5.342;2022-09-09T06:56:46;100470.00;;;21.80
19282;BMP180;9774;52.034;5.342;2022-09-09T06:59:13;100472.00;;;21.90
19282;BMP180;9774;52.034;5.342;2022-09-09T07:01:42;100474.00;;;21.90
19282;BMP180;9774;52.034;5.342;2022-09-09T07:04:10;100464.00;;;22.00
19282;BMP180;9774;52.034;5.342;2022-09-09T07:06:40;100466.00;;;22.00
19282;BMP180;9774;52.034;5.342;2022-09-09T07:09:10;100471.00;;;22.00
19282;BMP180;9774;52.034;5.342;2022-09-09T07:11:39;100464.00;;;22.10
19282;BMP180;9774;52.034;5.342;2022-09-09T07:14:07;100460.00;;;22.10
19282;BMP180;9774;52.034;5.342;2022-09-09T07:16:35;100463.00;;;22.10
19282;BMP180;9774;52.034;5.342;2022-09-09T07:19:04;100463.00;;;22.10
19282;BMP180;9774;52.034;5.342;2022-09-09T07:21:33;100465.00;;;22.10
19282;BMP180;9774;52.034;5.342;2022-09-09T07:24:01;100468.00;;;22.20
19282;BMP180;9774;52.034;5.342;2022-09-09T07:26:31;100461.00;;;22.20
19282;BMP180;9774;52.034;5.342;2022-09-09T07:28:58;100467.00;;;22.20
19282;BMP180;9774;52.034;5.342;2022-09-09T07:31:27;100461.00;;;22.20
19282;BMP180;9774;52.034;5.342;2022-09-09T07:33:56;100464.00;;;22.20
19282;BMP180;9774;52.034;5.342;2022-09-09T07:36:27;100461.00;;;22.20
19282;BMP180;9774;52.034;5.342;2022-09-09T07:38:58;100463.00;;;22.20
19282;BMP180;9774;52.034;5.342;2022-09-09T07:41:28;100461.00;;;22.30
19282;BMP180;9774;52.034;5.342;2022-09-09T07:43:56;100470.00;;;22.40
19282;BMP180;9774;52.034;5.342;2022-09-09T07:46:26;100474.00;;;22.40
19282;BMP180;9774;52.034;5.342;2022-09-09T07:48:54;100473.00;;;22.40
19282;BMP180;9774;52.034;5.342;2022-09-09T07:51:25;100486.00;;;22.50
19282;BMP180;9774;52.034;5.342;2022-09-09T07:53:54;100483.00;;;22.50
19282;BMP180;9774;52.034;5.342;2022-09-09T07:56:22;100482.00;;;22.50
19282;BMP180;9774;52.034;5.342;2022-09-09T07:58:50;100486.00;;;22.50
19282;BMP180;9774;52.034;5.342;2022-09-09T08:01:20;100496.00;;;22.50
19282;BMP180;9774;52.034;5.342;2022-09-09T08:03:53;100492.00;;;22.50
19282;BMP180;9774;52.034;5.342;2022-09-09T08:06:20;100488.00;;;22.60
19282;BMP180;9774;52.034;5.342;2022-09-09T08:08:51;100486.00;;;22.50
19282;BMP180;9774;52.034;5.342;2022-09-09T08:11:22;100494.00;;;22.60
19282;BMP180;9774;52.034;5.342;2022-09-09T08:13:51;100493.00;;;22.60
19282;BMP180;9774;52.034;5.342;2022-09-09T08:16:21;100489.00;;;22.60
19282;BMP180;9774;52.034;5.342;2022-09-09T08:18:49;100485.00;;;22.60
19282;BMP180;9774;52.034;5.342;2022-09-09T08:21:19;100497.00;;;22.60
19282;BMP180;9774;52.034;5.342;2022-09-09T08:23:49;100496.00;;;22.60
19282;BMP180;9774;52.034;5.342;2022-09-09T08:26:21;100498.00;;;22.60
19282;BMP180;9774;52.034;5.342;2022-09-09T08:28:50;100504.00;;;22.60
19282;BMP180;9774;52.034;5.342;2022-09-09T08:31:19;100503.00;;;22.60
19282;BMP180;9774;52.034;5.342;2022-09-09T08:33:48;100494.00;;;22.60
19282;BMP180;9774;52.034;5.342;2022-09-09T08:36:17;100495.00;;;22.50
19282;BMP180;9774;52.034;5.342;2022-09-09T08:38:48;100497.00;;;22.50
19282;BMP180;9774;52.034;5.342;2022-09-09T08:41:32;100502.00;;;22.40
19282;BMP180;9774;52.034;5.342;2022-09-09T08:44:07;100502.00;;;22.50
19282;BMP180;9774;52.034;5.342;2022-09-09T08:46:46;100503.00;;;22.50
19282;BMP180;9774;52.034;5.342;2022-09-09T08:49:28;100507.00;;;22.50
19282;BMP180;9774;52.034;5.342;2022-09-09T08:51:58;100501.00;;;22.50
19282;BMP180;9774;52.034;5.342;2022-09-09T08:54:30;100506.00;;;22.50
19282;BMP180;9774;52.034;5.342;2022-09-09T08:57:00;100506.00;;;22.60
19282;BMP180;9774;52.034;5.342;2022-09-09T08:59:28;100504.00;;;22.60
19282;BMP180;9774;52.034;5.342;2022-09-09T09:02:03;100505.00;;;22.50
19282;BMP180;9774;52.034;5.342;2022-09-09T09:04:52;100508.00;;;22.50
19282;BMP180;9774;52.034;5.342;2022-09-09T09:07:28;100505.00;;;22.50
19282;BMP180;9774;52.034;5.342;2022-09-09T09:10:04;100511.00;;;22.50
19282;BMP180;9774;52.034;5.342;2022-09-09T09:12:41;100512.00;;;22.50
19282;BMP180;9774;52.034;5.342;2022-09-09T09:15:14;100515.00;;;22.50
19282;BMP180;9774;52.034;5.342;2022-09-09T09:17:43;100512.00;;;22.60
19282;BMP180;9774;52.034;5.342;2022-09-09T09:20:13;100513.00;;;22.60
19282;BMP180;9774;52.034;5.342;2022-09-09T09:22:47;100517.00;;;22.60
19282;BMP180;9774;52.034;5.342;2022-09-09T09:25:17;100510.00;;;22.60
19282;BMP180;9774;52.034;5.342;2022-09-09T09:27:52;100515.00;;;22.60
19282;BMP180;9774;52.034;5.342;2022-09-09T09:30:26;100519.00;;;22.70
19282;BMP180;9774;52.034;5.342;2022-09-09T09:32:55;100516.00;;;22.70
19282;BMP180;9774;52.034;5.342;2022-09-09T09:35:23;100518.00;;;22.70
19282;BMP180;9774;52.034;5.342;2022-09-09T09:37:51;100512.00;;;22.80
19282;BMP180;9774;52.034;5.342;2022-09-09T09:40:20;100516.00;;;22.70
19282;BMP180;9774;52.034;5.342;2022-09-09T09:42:52;100522.00;;;22.70
19282;BMP180;9774;52.034;5.342;2022-09-09T09:45:28;100520.00;;;22.70
19282;BMP180;9774;52.034;5.342;2022-09-09T09:48:02;100519.00;;;22.70
19282;BMP180;9774;52.034;5.342;2022-09-09T09:50:30;100523.00;;;22.80
19282;BMP180;9774;52.034;5.342;2022-09-09T09:53:00;100523.00;;;22.80
19282;BMP180;9774;52.034;5.342;2022-09-09T09:55:31;100510.00;;;22.80
19282;BMP180;9774;52.034;5.342;2022-09-09T09:58:06;100515.00;;;22.80
19282;BMP180;9774;52.034;5.342;2022-09-09T10:00:34;100518.00;;;22.90
19282;BMP180;9774;52.034;5.342;2022-09-09T10:03:12;100516.00;;;22.90
19282;BMP180;9774;52.034;5.342;2022-09-09T10:05:47;100517.00;;;22.80
19282;BMP180;9774;52.034;5.342;2022-09-09T10:08:16;100512.00;;;22.90
19282;BMP180;9774;52.034;5.342;2022-09-09T10:10:52;100518.00;;;22.80
19282;BMP180;9774;52.034;5.342;2022-09-09T10:13:29;100515.00;;;22.90
19282;BMP180;9774;52.034;5.342;2022-09-09T10:16:09;100519.00;;;22.80
19282;BMP180;9774;52.034;5.342;2022-09-09T10:18:57;100522.00;;;22.80
19282;BMP180;9774;52.034;5.342;2022-09-09T10:21:39;100520.00;;;22.90
19282;BMP180;9774;52.034;5.342;2022-09-09T10:24:34;100529.00;;;22.80
19282;BMP180;9774;52.034;5.342;2022-09-09T10:27:10;100526.00;;;22.90
19282;BMP180;9774;52.034;5.342;2022-09-09T10:30:03;100532.00;;;22.80
19282;BMP180;9774;52.034;5.342;2022-09-09T10:32:41;100531.00;;;22.90
19282;BMP180;9774;52.034;5.342;2022-09-09T10:35:14;100533.00;;;22.90
19282;BMP180;9774;52.034;5.342;2022-09-09T10:38:12;100533.00;;;22.80
19282;BMP180;9774;52.034;5.342;2022-09-09T10:40:50;100536.00;;;22.90
19282;BMP180;9774;52.034;5.342;2022-09-09T10:43:37;100525.00;;;22.90
19282;BMP180;9774;52.034;5.342;2022-09-09T10:46:11;100526.00;;;22.90
19282;BMP180;9774;52.034;5.342;2022-09-09T10:48:54;100521.00;;;22.90
19282;BMP180;9774;52.034;5.342;2022-09-09T10:51:33;100522.00;;;22.90
19282;BMP180;9774;52.034;5.342;2022-09-09T10:54:12;100520.00;;;23.00
19282;BMP180;9774;52.034;5.342;2022-09-09T10:56:43;100512.00;;;23.10
19282;BMP180;9774;52.034;5.342;2022-09-09T10:59:16;100519.00;;;23.20
19282;BMP180;9774;52.034;5.342;2022-09-09T11:01:52;100518.00;;;23.20
19282;BMP180;9774;52.034;5.342;2022-09-09T11:04:24;100511.00;;;23.30
19282;BMP180;9774;52.034;5.342;2022-09-09T11:06:54;100509.00;;;23.30
19282;BMP180;9774;52.034;5.342;2022-09-09T11:09:27;100502.00;;;23.30
19282;BMP180;9774;52.034;5.342;2022-09-09T11:11:56;100511.00;;;23.40
19282;BMP180;9774;52.034;5.342;2022-09-09T11:14:30;100503.00;;;23.40
19282;BMP180;9774;52.034;5.342;2022-09-09T11:17:03;100509.00;;;23.40
19282;BMP180;9774;52.034;5.342;2022-09-09T11:19:34;100514.00;;;23.40
19282;BMP180;9774;52.034;5.342;2022-09-09T11:22:03;100505.00;;;23.40
19282;BMP180;9774;52.034;5.342;2022-09-09T11:24:37;100510.00;;;23.40
19282;BMP180;9774;52.034;5.342;2022-09-09T11:27:10;100512.00;;;23.40
19282;BMP180;9774;52.034;5.342;2022-09-09T11:32:53;100503.00;;;23.40
19282;BMP180;9774;52.034;5.342;2022-09-09T11:35:30;100496.00;;;23.40
19282;BMP180;9774;52.034;5.342;2022-09-09T11:38:15;100500.00;;;23.40
19282;BMP180;9774;52.034;5.342;2022-09-09T11:40:44;100507.00;;;23.50
19282;BMP180;9774;52.034;5.342;2022-09-09T11:43:15;100503.00;;;23.40
19282;BMP180;9774;52.034;5.342;2022-09-09T11:45:49;100503.00;;;23.40
19282;BMP180;9774;52.034;5.342;2022-09-09T11:48:29;100501.00;;;23.30
19282;BMP180;9774;52.034;5.342;2022-09-09T11:51:03;100500.00;;;23.40
19282;BMP180;9774;52.034;5.342;2022-09-09T11:53:31;100493.00;;;23.40
19282;BMP180;9774;52.034;5.342;2022-09-09T11:56:26;100506.00;;;23.30
19282;BMP180;9774;52.034;5.342;2022-09-09T11:58:57;100498.00;;;23.40
19282;BMP180;9774;52.034;5.342;2022-09-09T12:01:36;100505.00;;;23.30
19282;BMP180;9774;52.034;5.342;2022-09-09T12:04:36;100509.00;;;23.20
19282;BMP180;9774;52.034;5.342;2022-09-09T12:07:25;100497.00;;;23.20
19282;BMP180;9774;52.034;5.342;2022-09-09T12:09:58;100504.00;;;23.30
19282;BMP180;9774;52.034;5.342;2022-09-09T12:12:31;100503.00;;;23.30
19282;BMP180;9774;52.034;5.342;2022-09-09T12:15:22;100505.00;;;23.20
19282;BMP180;9774;52.034;5.342;2022-09-09T12:17:52;100512.00;;;23.30
19282;BMP180;9774;52.034;5.342;2022-09-09T12:20:23;100507.00;;;23.20
19282;BMP180;9774;52.034;5.342;2022-09-09T12:23:04;100505.00;;;23.20
19282;BMP180;9774;52.034;5.342;2022-09-09T12:25:39;100510.00;;;23.20
19282;BMP180;9774;52.034;5.342;2022-09-09T12:28:14;100498.00;;;23.20
19282;BMP180;9774;52.034;5.342;2022-09-09T12:30:49;100495.00;;;23.20
19282;BMP180;9774;52.034;5.342;2022-09-09T12:33:18;100508.00;;;23.30
19282;BMP180;9774;52.034;5.342;2022-09-09T12:35:54;100496.00;;;23.30
19282;BMP180;9774;52.034;5.342;2022-09-09T12:38:27;100501.00;;;23.30
19282;BMP180;9774;52.034;5.342;2022-09-09T12:40:58;100499.00;;;23.30
19282;BMP180;9774;52.034;5.342;2022-09-09T12:43:27;100505.00;;;23.30
19282;BMP180;9774;52.034;5.342;2022-09-09T12:45:57;100497.00;;;23.30
19282;BMP180;9774;52.034;5.342;2022-09-09T12:48:30;100497.00;;;23.30
19282;BMP180;9774;52.034;5.342;2022-09-09T12:51:00;100493.00;;;23.30
19282;BMP180;9774;52.034;5.342;2022-09-09T12:53:31;100496.00;;;23.40
19282;BMP180;9774;52.034;5.342;2022-09-09T12:56:03;100498.00;;;23.40
19282;BMP180;9774;52.034;5.342;2022-09-09T12:58:31;100502.00;;;23.40
19282;BMP180;9774;52.034;5.342;2022-09-09T13:01:00;100498.00;;;23.40
19282;BMP180;9774;52.034;5.342;2022-09-09T13:03:31;100496.00;;;23.50
19282;BMP180;9774;52.034;5.342;2022-09-09T13:06:12;100502.00;;;23.40
19282;BMP180;9774;52.034;5.342;2022-09-09T13:08:40;100501.00;;;23.50
19282;BMP180;9774;52.034;5.342;2022-09-09T13:11:10;100501.00;;;23.40
19282;BMP180;9774;52.034;5.342;2022-09-09T13:13:41;100500.00;;;23.50
19282;BMP180;9774;52.034;5.342;2022-09-09T13:16:20;100499.00;;;23.40
19282;BMP180;9774;52.034;5.342;2022-09-09T13:18:49;100492.00;;;23.50
19282;BMP180;9774;52.034;5.342;2022-09-09T13:21:18;100499.00;;;23.50
19282;BMP180;9774;52.034;5.342;2022-09-09T13:23:50;100492.00;;;23.40
19282;BMP180;9774;52.034;5.342;2022-09-09T13:26:23;100486.00;;;23.50
19282;BMP180;9774;52.034;5.342;2022-09-09T13:28:51;100482.00;;;23.50
19282;BMP180;9774;52.034;5.342;2022-09-09T13:31:23;100485.00;;;23.50
19282;BMP180;9774;52.034;5.342;2022-09-09T13:33:53;100481.00;;;23.50
19282;BMP180;9774;52.034;5.342;2022-09-09T13:36:29;100485.00;;;23.50
19282;BMP180;9774;52.034;5.342;2022-09-09T13:38:59;100477.00;;;23.60
19282;BMP180;9774;52.034;5.342;2022-09-09T13:41:31;100473.00;;;23.60
19282;BMP180;9774;52.034;5.342;2022-09-09T13:44:00;100475.00;;;23.60
19282;BMP180;9774;52.034;5.342;2022-09-09T13:46:33;100474.00;;;23.60
19282;BMP180;9774;52.034;5.342;2022-09-09T13:49:18;100478.00;;;23.70
19282;BMP180;9774;52.034;5.342;2022-09-09T13:51:49;100468.00;;;23.70
19282;BMP180;9774;52.034;5.342;2022-09-09T13:54:17;100482.00;;;23.80
19282;BMP180;9774;52.034;5.342;2022-09-09T13:56:45;100484.00;;;23.80
19282;BMP180;9774;52.034;5.342;2022-09-09T13:59:15;100487.00;;;23.80
19282;BMP180;9774;52.034;5.342;2022-09-09T14:01:42;100491.00;;;23.80
19282;BMP180;9774;52.034;5.342;2022-09-09T14:04:10;100480.00;;;23.90
19282;BMP180;9774;52.034;5.342;2022-09-09T14:06:38;100480.00;;;23.90
19282;BMP180;9774;52.034;5.342;2022-09-09T14:09:10;100476.00;;;24.00
19282;BMP180;9774;52.034;5.342;2022-09-09T14:11:37;100476.00;;;24.00
19282;BMP180;9774;52.034;5.342;2022-09-09T14:14:04;100481.00;;;24.10
19282;BMP180;9774;52.034;5.342;2022-09-09T14:16:32;100488.00;;;24.10
19282;BMP180;9774;52.034;5.342;2022-09-09T14:18:59;100476.00;;;24.10
19282;BMP180;9774;52.034;5.342;2022-09-09T14:21:28;100470.00;;;24.10
19282;BMP180;9774;52.034;5.342;2022-09-09T14:23:55;100476.00;;;24.10
19282;BMP180;9774;52.034;5.342;2022-09-09T14:26:26;100482.00;;;24.20
19282;BMP180;9774;52.034;5.342;2022-09-09T14:28:55;100477.00;;;24.20
19282;BMP180;9774;52.034;5.342;2022-09-09T14:31:23;100473.00;;;24.20
19282;BMP180;9774;52.034;5.342;2022-09-09T14:33:51;100476.00;;;24.20
19282;BMP180;9774;52.034;5.342;2022-09-09T14:36:18;100464.00;;;24.20
19282;BMP180;9774;52.034;5.342;2022-09-09T14:38:48;100469.00;;;24.20